Mackinaw City, MI

7:21 AM EST on December 25, 2014 (GMT -0500)
Harbor Springs | Change Station
CLOSE
Current Station
Airport
Location: Harbor Springs,
Elevation: 686 ft
Nearby Weather Stations

Elev 686 ft 45.43 °N, 84.91 °W | Updated 6 minutes ago

Overcast
Overcast
35 °F
Feels Like 25 °F
N
15
Wind Variable Wind from West
Gusts 22 mph

Today
High -- | Low -- °F
--% Chance of Precip.
Yesterday
High -- | Low -- °F
Precip. -- in
8:18 AM 4:59 PM
Waxing Crescent, 16% visible
Pressure 29.59 in
Visibility 10.0 miles
Clouds Overcast 2800 ft
Windchill 25 °F
Dew Point 28 °F
Humidity 77%
Rainfall 0.00 in
Snow Depth Not available.
UV 0 out of 12
Pollen .10 out of 12
Air Quality Not available.
Flu Activity Not available.
METAR KMGN 251215Z AUTO 27013G19KT 10SM OVC028 01/M02 A2959 RMK AO2 T00151021

More Conditions Fewer Conditions

Pressure 29.59 in
Visibility 10.0 miles
Clouds Overcast 2800 ft
Windchill 25 °F
Dew Point 28 °F
Humidity 77%
Rainfall 0.00 in
Snow Depth Not available.
UV 0 out of 12
Pollen .10 out of 12
Air Quality Not available.
Flu Activity Not available.
METAR KMGN 251215Z AUTO 27013G19KT 10SM OVC028 01/M02 A2959 RMK AO2 T00151021

More Conditions Fewer Conditions

Nowcast | as of 7:00 am EST on December 25, 2014

At 8 am...cloudy. Scattered flurries. Temperature 35. West winds 18 mph with gusts to 30 mph. At 10 am...cloudy. Scattered flurries. Temperature 35. West winds 17 mph with gusts to 30 mph. At 12 PM...cloudy. Scattered flurries. Temperature 35. West winds 16 mph. At 2 PM...cloudy. Temperature 35. West winds 16 mph.

×

10-Day Weather Forecast

Almanac

Astronomy

Dec. 25, 2014 Rise Set
Actual Time
Civil Twilight
Nautical Twilight
Astronomical Twilight
Moon
Length of Visible Light
Length of Day
Tomorrow will be .
, % of the Moon is Illuminated

Today's Extremes

State Highs State Lows

Community

WunderPhotos

Upload Photos

1,780,266 photos uploaded!

WunderBlogs® & News

Nearby

Air Quality

  Air Quality AQ Index Pollutant
Not available.

Snow Depth

Station Depth Elevation

Earthquake Activity

City Distance Mag. Time & Date
Minimum magnitude displayed is 2.5.

Coastal Water Temperatures

Place Temperature

Nearby Weather Stations